Time;durP1;ratioP1;P1;durP2;ratioP2;P2;SDS_P1;SDS_P2;PMS_P1;PMS_P2;Temp;Humidity;BMP_temperature;BMP_pressure;BME280_temperature;BME280_humidity;BME280_pressure;Samples;Min_cycle;Max_cycle;Signal;HPM_P1;HPM_P2
2022/12/31 00:01:26;;;;;;;2.45;1.90;;;20.60;78.80;;;;;;5056674;28;20198;-43
2022/12/31 00:03:54;;;;;;;3.40;2.35;;;20.60;78.90;;;;;;5057966;28;20628;-45
2022/12/31 00:06:23;;;;;;;4.82;2.53;;;20.60;79.10;;;;;;5062857;28;20199;-45
2022/12/31 00:08:51;;;;;;;4.60;2.30;;;20.60;79.20;;;;;;5061728;28;20241;-48
2022/12/31 00:11:19;;;;;;;4.32;3.13;;;20.60;79.20;;;;;;5065532;28;20196;-44
2022/12/31 00:13:46;;;;;;;4.95;2.35;;;20.60;79.20;;;;;;5067479;28;20223;-43
2022/12/31 00:16:15;;;;;;;4.00;2.58;;;20.60;79.20;;;;;;5062031;28;20981;-44
2022/12/31 00:18:44;;;;;;;2.65;2.30;;;20.60;79.30;;;;;;5065676;28;20213;-43
2022/12/31 00:21:12;;;;;;;4.32;3.08;;;20.60;80.10;;;;;;5066810;28;20211;-44
2022/12/31 00:23:39;;;;;;;3.45;3.10;;;20.60;79.30;;;;;;5066522;28;20190;-43
2022/12/31 00:26:08;;;;;;;5.55;3.72;;;20.60;79.30;;;;;;5060846;28;20190;-45
2022/12/31 00:28:36;;;;;;;2.55;2.35;;;20.60;79.30;;;;;;5064707;28;20261;-46
2022/12/31 00:31:08;;;;;;;3.17;2.53;;;20.60;79.30;;;;;;5061545;28;20190;-45
2022/12/31 00:33:35;;;;;;;3.40;2.50;;;20.60;79.40;;;;;;5065548;28;20214;-45
2022/12/31 00:36:07;;;;;;;4.90;3.03;;;20.50;79.20;;;;;;5054900;28;20190;-43
2022/12/31 00:38:35;;;;;;;4.57;4.18;;;20.50;79.30;;;;;;5063321;28;20203;-43
2022/12/31 00:41:02;;;;;;;24.25;22.67;;;20.50;79.20;;;;;;5061068;28;20199;-43
2022/12/31 00:43:29;;;;;;;2.95;2.35;;;20.50;79.20;;;;;;5060462;28;20208;-49
2022/12/31 00:45:55;;;;;;;3.25;2.65;;;20.50;79.30;;;;;;5059633;28;20206;-43
2022/12/31 00:48:22;;;;;;;88.40;83.63;;;20.50;79.20;;;;;;5064930;28;20217;-43
2022/12/31 00:50:49;;;;;;;110.45;105.93;;;20.50;79.20;;;;;;5060330;28;20214;-44
2022/12/31 00:53:16;;;;;;;3.42;2.45;;;20.50;79.10;;;;;;5068501;28;20244;-42
2022/12/31 00:55:44;;;;;;;3.10;2.10;;;20.50;79.10;;;;;;5066585;28;20196;-44
2022/12/31 00:58:10;;;;;;;2.88;1.90;;;20.40;79.00;;;;;;5069215;28;20222;-43
2022/12/31 01:00:38;;;;;;;4.85;3.65;;;20.40;79.00;;;;;;5064634;28;20195;-44
2022/12/31 01:03:05;;;;;;;33.67;32.22;;;20.40;78.90;;;;;;5063138;28;20606;-43
2022/12/31 01:05:32;;;;;;;2.40;2.08;;;20.40;78.90;;;;;;5067295;28;20194;-43
2022/12/31 01:07:59;;;;;;;3.63;1.60;;;20.40;78.90;;;;;;5068660;28;20210;-44
2022/12/31 01:13:12;;;;;;;4.25;2.58;;;20.30;78.70;;;;;;5067632;28;20193;-43
2022/12/31 01:15:39;;;;;;;6.00;4.45;;;20.40;78.90;;;;;;5061853;28;20201;-43
2022/12/31 01:18:07;;;;;;;3.20;2.80;;;20.40;79.60;;;;;;5062393;28;20277;-46
2022/12/31 01:20:36;;;;;;;4.18;3.78;;;20.40;78.70;;;;;;5060055;28;20223;-47
2022/12/31 01:23:02;;;;;;;4.40;3.97;;;20.40;78.80;;;;;;5066921;28;20200;-45
2022/12/31 01:25:29;;;;;;;3.25;1.90;;;20.30;78.60;;;;;;5065859;28;20215;-43
2022/12/31 01:27:56;;;;;;;2.40;2.20;;;20.30;78.60;;;;;;5065208;28;20225;-43
2022/12/31 01:30:24;;;;;;;3.55;2.50;;;20.30;78.50;;;;;;5061913;28;20190;-47
2022/12/31 01:32:50;;;;;;;2.97;2.22;;;20.30;78.50;;;;;;5061983;28;20559;-43
2022/12/31 01:35:17;;;;;;;4.03;3.40;;;20.30;78.50;;;;;;5063576;28;20194;-42
2022/12/31 01:37:44;;;;;;;3.00;2.58;;;20.40;78.30;;;;;;5064230;28;20207;-44
2022/12/31 01:40:11;;;;;;;3.95;2.88;;;20.50;78.20;;;;;;5058149;28;20198;-44
2022/12/31 01:42:38;;;;;;;3.00;2.70;;;20.60;77.80;;;;;;5062605;28;20194;-48
2022/12/31 01:45:10;;;;;;;4.18;3.78;;;20.60;77.50;;;;;;5061695;28;20627;-43
2022/12/31 01:47:43;;;;;;;5.57;4.97;;;20.60;77.30;;;;;;5058301;28;20215;-43
2022/12/31 01:50:14;;;;;;;3.20;2.90;;;20.50;77.10;;;;;;5058083;28;20207;-43
2022/12/31 01:52:45;;;;;;;3.85;3.25;;;20.50;77.10;;;;;;5057582;28;20199;-43
2022/12/31 01:55:16;;;;;;;3.35;2.22;;;20.50;77.10;;;;;;5065681;28;20203;-42
2022/12/31 01:57:45;;;;;;;4.60;2.50;;;20.50;77.10;;;;;;5064736;28;20585;-43
2022/12/31 02:00:13;;;;;;;2.50;1.88;;;20.50;77.10;;;;;;5068283;28;20192;-42
2022/12/31 02:02:41;;;;;;;4.00;3.15;;;20.50;77.10;;;;;;5064606;28;20552;-42
2022/12/31 02:05:16;;;;;;;2.08;1.85;;;20.40;77.00;;;;;;5070007;28;20199;-42
2022/12/31 02:07:44;;;;;;;3.33;2.17;;;20.40;77.00;;;;;;5065807;28;20280;-43
2022/12/31 02:10:10;;;;;;;2.40;2.20;;;20.40;77.00;;;;;;5063355;28;20198;-42
2022/12/31 02:12:37;;;;;;;3.92;3.55;;;20.50;77.10;;;;;;5061653;28;20203;-42
2022/12/31 02:15:05;;;;;;;2.40;2.10;;;20.40;76.90;;;;;;5063753;28;20631;-45
2022/12/31 02:17:36;;;;;;;2.95;2.20;;;20.40;76.80;;;;;;5069824;28;20207;-48
2022/12/31 02:20:27;;;;;;;3.88;2.67;;;20.40;76.80;;;;;;5065768;28;20213;-43
2022/12/31 02:23:24;;;;;;;1.75;1.65;;;20.40;76.80;;;;;;5071454;28;20578;-42
2022/12/31 02:26:04;;;;;;;5.40;2.28;;;20.40;76.70;;;;;;5058781;28;20191;-46
2022/12/31 02:28:47;;;;;;;2.42;2.20;;;20.40;76.70;;;;;;5071710;28;20221;-43
2022/12/31 02:31:21;;;;;;;2.42;2.22;;;20.40;77.40;;;;;;5061699;28;20199;-43
2022/12/31 02:33:52;;;;;;;3.65;2.85;;;20.40;76.70;;;;;;5062793;28;20277;-42
2022/12/31 02:36:25;;;;;;;3.55;2.03;;;20.40;76.60;;;;;;5068357;28;20195;-42
2022/12/31 02:38:52;;;;;;;3.03;2.83;;;20.40;76.60;;;;;;5071403;28;20204;-42
2022/12/31 02:44:01;;;;;;;2.50;2.30;;;20.30;76.50;;;;;;5064033;28;20191;-42
2022/12/31 02:46:34;;;;;;;3.88;3.55;;;20.30;76.40;;;;;;5061236;28;20552;-45
2022/12/31 02:49:07;;;;;;;2.15;1.92;;;20.30;76.50;;;;;;5065503;28;20218;-44
2022/12/31 02:51:41;;;;;;;4.30;4.00;;;20.30;76.40;;;;;;5059436;28;20198;-43
2022/12/31 02:54:28;;;;;;;3.47;2.30;;;20.30;76.40;;;;;;5069648;28;20610;-43
2022/12/31 02:57:04;;;;;;;2.92;2.58;;;20.30;76.40;;;;;;5068107;28;20680;-42
2022/12/31 03:02:23;;;;;;;2.00;1.60;;;20.30;76.30;;;;;;5068089;28;20195;-47
2022/12/31 03:04:52;;;;;;;2.13;1.92;;;20.20;76.20;;;;;;5070744;28;20194;-44
2022/12/31 03:07:21;;;;;;;2.42;2.22;;;20.30;76.30;;;;;;5065901;28;20194;-42
2022/12/31 03:09:49;;;;;;;3.78;3.22;;;20.20;76.20;;;;;;5068672;28;20261;-43
2022/12/31 03:15:05;;;;;;;2.50;2.10;;;20.20;76.20;;;;;;5069097;28;20206;-52
2022/12/31 03:17:33;;;;;;;2.65;1.83;;;20.20;76.20;;;;;;5064076;28;20544;-46
2022/12/31 03:22:44;;;;;;;2.15;1.80;;;20.20;76.10;;;;;;5068208;28;20229;-47
2022/12/31 03:27:57;;;;;;;2.28;2.08;;;20.20;76.10;;;;;;5068356;28;20210;-42
2022/12/31 03:30:24;;;;;;;3.38;3.08;;;20.20;76.00;;;;;;5063070;28;20485;-46
2022/12/31 03:32:55;;;;;;;2.60;2.40;;;20.20;76.10;;;;;;5067868;28;20194;-42
2022/12/31 03:35:22;;;;;;;3.97;3.67;;;20.20;76.10;;;;;;5063942;28;20205;-42
2022/12/31 03:37:50;;;;;;;5.35;3.17;;;20.20;76.00;;;;;;5063580;28;20194;-43
2022/12/31 03:40:18;;;;;;;3.25;2.95;;;20.20;76.00;;;;;;5065157;28;20200;-43
2022/12/31 03:42:46;;;;;;;2.70;2.20;;;20.20;76.00;;;;;;5066972;28;20202;-43
2022/12/31 03:45:13;;;;;;;1.60;1.45;;;20.30;76.10;;;;;;5061602;28;20673;-43
2022/12/31 03:47:40;;;;;;;2.92;2.63;;;20.30;76.10;;;;;;5063595;28;20225;-42
2022/12/31 03:50:10;;;;;;;4.00;3.38;;;20.10;75.90;;;;;;5059682;28;20219;-43
2022/12/31 03:52:37;;;;;;;1.95;1.83;;;20.20;76.00;;;;;;5065356;28;20197;-46
2022/12/31 03:55:05;;;;;;;1.98;1.77;;;20.10;75.80;;;;;;5062123;28;20198;-43
2022/12/31 03:57:32;;;;;;;1.67;1.55;;;20.10;75.80;;;;;;5067541;28;20205;-42
2022/12/31 03:59:59;;;;;;;2.25;1.77;;;20.10;75.80;;;;;;5069388;28;20202;-46
2022/12/31 04:02:26;;;;;;;1.75;1.48;;;20.10;75.80;;;;;;5070532;28;20202;-42
2022/12/31 04:04:53;;;;;;;2.28;2.08;;;20.10;75.70;;;;;;5060325;28;20201;-44
2022/12/31 04:07:21;;;;;;;2.63;2.20;;;20.10;75.80;;;;;;5069214;28;20187;-43
2022/12/31 04:09:47;;;;;;;3.45;2.90;;;20.10;75.80;;;;;;5064752;28;20218;-45
2022/12/31 04:12:14;;;;;;;1.90;1.80;;;20.10;75.80;;;;;;5061683;28;20193;-42
2022/12/31 04:14:41;;;;;;;2.70;2.45;;;20.10;75.70;;;;;;5066480;28;20199;-43
2022/12/31 04:17:08;;;;;;;2.65;2.45;;;20.10;75.70;;;;;;5062883;28;20210;-42
2022/12/31 04:19:36;;;;;;;1.30;1.20;;;20.10;75.60;;;;;;5068659;28;20215;-42
2022/12/31 04:22:03;;;;;;;4.32;4.03;;;20.10;75.60;;;;;;5068424;28;20203;-44
2022/12/31 04:24:31;;;;;;;2.05;1.85;;;20.00;75.50;;;;;;5069293;28;20201;-42
2022/12/31 04:30:19;;;;;;;3.85;3.55;;;20.10;75.60;;;;;;5059903;28;20685;-43
2022/12/31 04:32:46;;;;;;;3.05;2.75;;;20.00;75.60;;;;;;5062161;28;20191;-43
2022/12/31 04:35:13;;;;;;;2.90;2.55;;;20.00;75.60;;;;;;5061732;28;20195;-43
2022/12/31 04:37:39;;;;;;;3.22;2.78;;;20.00;75.60;;;;;;5066367;28;20187;-45
2022/12/31 04:40:09;;;;;;;3.42;3.08;;;20.00;75.50;;;;;;5061849;28;20551;-43
2022/12/31 04:42:36;;;;;;;2.85;2.40;;;20.00;75.50;;;;;;5067906;28;20570;-45
2022/12/31 04:45:02;;;;;;;2.13;1.92;;;20.00;75.50;;;;;;5061261;28;20200;-43
2022/12/31 04:47:29;;;;;;;2.45;1.70;;;20.00;75.50;;;;;;5064464;28;20194;-46
2022/12/31 04:49:56;;;;;;;2.13;1.92;;;20.00;75.50;;;;;;5066314;28;20253;-42
2022/12/31 04:52:23;;;;;;;2.30;1.77;;;20.00;75.50;;;;;;5064821;28;20194;-43
2022/12/31 04:54:50;;;;;;;2.22;2.03;;;20.00;75.50;;;;;;5065867;28;20201;-44
2022/12/31 04:57:18;;;;;;;2.50;2.28;;;19.90;75.40;;;;;;5066565;28;20191;-42
2022/12/31 04:59:44;;;;;;;3.17;2.97;;;19.80;75.30;;;;;;5060045;28;20203;-42
2022/12/31 05:02:11;;;;;;;4.20;3.83;;;19.90;75.50;;;;;;5061905;28;20665;-43
2022/12/31 05:04:38;;;;;;;2.17;1.98;;;20.00;75.30;;;;;;5067918;28;20201;-47
2022/12/31 05:07:04;;;;;;;4.95;4.55;;;20.20;75.00;;;;;;5062279;28;20199;-42
2022/12/31 05:12:55;;;;;;;2.13;1.95;;;20.40;74.30;;;;;;5059726;28;20188;-42
2022/12/31 05:15:21;;;;;;;16.05;14.77;;;20.50;73.40;;;;;;5054607;28;20565;-42
2022/12/31 05:17:48;;;;;;;3.15;2.95;;;20.60;73.10;;;;;;5061699;28;20228;-44
2022/12/31 05:20:15;;;;;;;4.65;4.22;;;20.70;72.80;;;;;;5065165;28;20218;-43
2022/12/31 05:22:41;;;;;;;1.63;1.45;;;20.80;72.50;;;;;;5061771;28;20201;-42
2022/12/31 05:25:09;;;;;;;3.33;3.10;;;20.80;72.30;;;;;;5065671;28;20190;-43
2022/12/31 05:27:36;;;;;;;2.05;1.85;;;20.90;72.20;;;;;;5058239;28;20198;-43
2022/12/31 05:30:05;;;;;;;1.98;1.83;;;21.00;72.00;;;;;;5067186;28;20664;-43
2022/12/31 05:32:32;;;;;;;2.70;2.50;;;21.10;71.80;;;;;;5058814;28;20199;-44
2022/12/31 05:34:59;;;;;;;2.20;1.95;;;21.10;71.50;;;;;;5068727;28;20195;-45
2022/12/31 05:37:26;;;;;;;1.63;1.33;;;21.20;71.30;;;;;;5063267;28;20195;-41
2022/12/31 05:39:53;;;;;;;1.60;1.50;;;21.30;71.00;;;;;;5068501;28;20198;-42
2022/12/31 05:42:20;;;;;;;3.55;2.72;;;21.30;70.80;;;;;;5059554;28;20194;-42
2022/12/31 05:44:46;;;;;;;4.00;3.70;;;21.30;70.80;;;;;;5064704;28;20222;-45
2022/12/31 05:47:15;;;;;;;2.78;2.58;;;21.30;70.80;;;;;;5060748;28;20203;-45
2022/12/31 05:49:42;;;;;;;2.65;2.45;;;21.20;70.80;;;;;;5061642;28;20230;-41
2022/12/31 05:52:09;;;;;;;4.57;4.18;;;21.20;70.90;;;;;;5063527;28;20662;-44
2022/12/31 05:54:36;;;;;;;1.95;1.83;;;21.20;71.10;;;;;;5065360;28;20199;-41
2022/12/31 05:57:03;;;;;;;2.50;2.22;;;21.30;71.00;;;;;;5067451;28;20276;-48
2022/12/31 05:59:29;;;;;;;3.22;2.92;;;21.30;70.70;;;;;;5070840;28;20195;-44
2022/12/31 06:01:56;;;;;;;2.70;2.50;;;21.40;70.40;;;;;;5073501;28;20201;-48
2022/12/31 06:04:24;;;;;;;2.03;1.67;;;21.40;70.30;;;;;;5072614;28;20251;-44
2022/12/31 06:06:51;;;;;;;1.70;1.60;;;21.50;70.30;;;;;;5070618;28;20646;-45
2022/12/31 06:09:19;;;;;;;3.38;3.08;;;21.50;70.00;;;;;;5066049;28;20596;-42
2022/12/31 06:11:46;;;;;;;3.30;3.03;;;21.50;69.90;;;;;;5063154;28;20192;-45
2022/12/31 06:14:13;;;;;;;2.45;1.92;;;21.50;69.90;;;;;;5071357;28;20651;-45
2022/12/31 06:16:40;;;;;;;2.72;2.53;;;21.50;69.90;;;;;;5066875;28;20197;-42
2022/12/31 06:19:07;;;;;;;1.30;1.20;;;21.40;69.80;;;;;;5068168;28;20221;-44
2022/12/31 06:21:35;;;;;;;2.15;1.95;;;21.40;70.00;;;;;;5065904;28;20196;-43
2022/12/31 06:24:02;;;;;;;2.35;1.40;;;21.30;70.00;;;;;;5071773;28;20198;-42
2022/12/31 06:26:29;;;;;;;3.28;2.55;;;21.40;70.20;;;;;;5065180;28;20205;-46
2022/12/31 06:28:56;;;;;;;2.38;2.15;;;21.40;70.20;;;;;;5066687;28;20195;-43
2022/12/31 06:31:22;;;;;;;3.13;2.92;;;21.50;69.90;;;;;;5065431;28;20218;-42
2022/12/31 06:33:49;;;;;;;3.55;2.95;;;21.40;69.50;;;;;;5065890;28;20571;-46
2022/12/31 06:36:16;;;;;;;2.47;2.28;;;21.60;69.60;;;;;;5065924;28;20199;-47
2022/12/31 06:38:44;;;;;;;2.35;2.15;;;21.60;69.40;;;;;;5069621;28;20207;-42
2022/12/31 06:41:12;;;;;;;2.67;2.47;;;21.50;69.50;;;;;;5068788;28;20196;-43
2022/12/31 06:43:40;;;;;;;2.47;2.28;;;21.50;69.60;;;;;;5066948;28;20203;-46
2022/12/31 06:46:09;;;;;;;1.40;1.23;;;21.50;69.80;;;;;;5066834;28;20198;-43
2022/12/31 06:48:36;;;;;;;2.17;1.77;;;21.40;69.80;;;;;;5069028;28;20198;-44
2022/12/31 06:51:05;;;;;;;2.72;2.53;;;21.40;70.70;;;;;;5064394;28;20702;-47
2022/12/31 06:53:31;;;;;;;2.08;1.88;;;21.50;69.70;;;;;;5067926;28;20215;-44
2022/12/31 06:56:06;;;;;;;1.42;1.20;;;21.70;69.90;;;;;;5067193;28;20201;-44
2022/12/31 06:58:33;;;;;;;3.03;2.83;;;21.60;69.50;;;;;;5061784;28;20202;-42
2022/12/31 07:01:11;;;;;;;1.58;1.48;;;21.60;69.50;;;;;;5066231;28;20677;-46
2022/12/31 07:03:43;;;;;;;2.55;2.35;;;21.50;69.50;;;;;;5068660;28;20407;-43
2022/12/31 07:06:16;;;;;;;2.88;2.67;;;21.50;69.60;;;;;;5062581;28;20202;-44
2022/12/31 07:08:53;;;;;;;1.90;1.75;;;21.50;69.90;;;;;;5069984;28;20213;-42
2022/12/31 07:11:23;;;;;;;1.35;1.20;;;21.50;70.00;;;;;;5067197;28;20588;-43
2022/12/31 07:14:17;;;;;;;3.05;2.38;;;21.60;69.90;;;;;;5067638;28;20194;-44
2022/12/31 07:16:56;;;;;;;2.70;2.50;;;21.70;69.50;;;;;;5060742;28;20199;-44
2022/12/31 07:19:36;;;;;;;2.00;1.75;;;21.60;69.40;;;;;;5061422;28;20210;-45
2022/12/31 07:22:03;;;;;;;4.93;4.53;;;21.70;69.70;;;;;;5057373;28;20222;-48
2022/12/31 07:24:30;;;;;;;1.65;1.48;;;21.80;69.40;;;;;;5066750;28;20191;-45
2022/12/31 07:27:12;;;;;;;5.60;3.25;;;21.80;69.30;;;;;;5066259;28;20195;-44
2022/12/31 07:29:52;;;;;;;3.15;1.88;;;21.80;69.10;;;;;;5066031;28;20188;-44
2022/12/31 07:32:30;;;;;;;3.83;3.63;;;21.80;69.20;;;;;;5060335;28;20199;-47
2022/12/31 07:35:05;;;;;;;5.85;5.35;;;21.80;69.30;;;;;;5057446;28;20204;-46
2022/12/31 07:37:41;;;;;;;3.90;3.60;;;21.90;69.20;;;;;;5060396;28;20194;-44
2022/12/31 07:40:13;;;;;;;3.60;2.45;;;21.90;69.00;;;;;;5060769;28;20201;-43
2022/12/31 07:42:50;;;;;;;4.60;4.20;;;21.80;69.00;;;;;;5059540;28;20587;-43
2022/12/31 07:45:24;;;;;;;3.92;3.65;;;21.80;69.00;;;;;;5059346;28;20191;-44
2022/12/31 07:47:51;;;;;;;16.10;15.30;;;21.80;69.00;;;;;;5060266;28;20195;-47
2022/12/31 07:50:19;;;;;;;4.18;3.83;;;21.80;68.90;;;;;;5063885;28;20221;-43
2022/12/31 07:52:46;;;;;;;2.33;1.70;;;21.80;68.90;;;;;;5064097;28;20202;-42
2022/12/31 07:55:13;;;;;;;3.60;3.33;;;21.80;68.90;;;;;;5063976;28;20233;-44
2022/12/31 07:57:50;;;;;;;2.05;1.70;;;21.80;69.00;;;;;;5068614;28;20195;-43
2022/12/31 08:00:18;;;;;;;4.55;4.13;;;21.80;69.10;;;;;;5067822;28;20563;-46
2022/12/31 08:03:04;;;;;;;3.30;3.10;;;21.70;68.90;;;;;;5066429;28;20325;-43
2022/12/31 08:05:35;;;;;;;2.90;2.53;;;21.80;69.00;;;;;;5067387;28;20196;-46
2022/12/31 08:08:12;;;;;;;2.67;2.47;;;21.80;69.00;;;;;;5067929;28;20200;-43
2022/12/31 08:10:48;;;;;;;2.75;2.55;;;21.90;68.90;;;;;;5064322;28;20239;-45
2022/12/31 08:13:17;;;;;;;2.95;2.75;;;21.80;68.80;;;;;;5065371;28;20202;-44
2022/12/31 08:15:44;;;;;;;2.13;1.92;;;21.80;68.80;;;;;;5066239;28;20206;-43
2022/12/31 08:18:11;;;;;;;2.83;2.58;;;21.80;68.90;;;;;;5069912;28;20206;-45
2022/12/31 08:20:47;;;;;;;2.80;2.58;;;21.70;69.70;;;;;;5065732;28;20217;-46
2022/12/31 08:23:28;;;;;;;4.55;4.20;;;21.70;68.90;;;;;;5061590;28;20696;-44
2022/12/31 08:26:06;;;;;;;1.90;1.80;;;21.80;68.90;;;;;;5059577;28;20202;-43
2022/12/31 08:28:50;;;;;;;2.85;2.35;;;21.80;68.80;;;;;;5063934;28;20194;-43
2022/12/31 08:31:19;;;;;;;3.38;3.10;;;22.00;69.00;;;;;;5059707;28;20218;-45
2022/12/31 08:33:55;;;;;;;4.15;3.75;;;21.80;68.70;;;;;;5064488;28;20199;-44
2022/12/31 08:36:32;;;;;;;1.95;1.75;;;21.80;68.80;;;;;;5060267;28;20222;-46
2022/12/31 08:39:07;;;;;;;4.53;4.20;;;21.80;68.80;;;;;;5064732;28;20191;-46
2022/12/31 08:41:41;;;;;;;3.67;3.38;;;21.90;68.70;;;;;;5064514;28;20221;-45
2022/12/31 08:44:22;;;;;;;3.05;2.85;;;21.90;68.50;;;;;;5064355;28;20198;-44
2022/12/31 08:46:56;;;;;;;2.78;2.28;;;21.90;68.40;;;;;;5064471;28;20204;-44
2022/12/31 08:49:25;;;;;;;3.53;3.30;;;21.90;68.40;;;;;;5065943;28;20206;-47
2022/12/31 08:51:52;;;;;;;5.13;4.72;;;21.90;68.40;;;;;;5055842;28;20222;-44
2022/12/31 08:54:20;;;;;;;6.00;5.57;;;21.90;68.50;;;;;;5060754;28;20204;-45
2022/12/31 08:56:51;;;;;;;4.43;4.10;;;21.90;68.50;;;;;;5060104;28;20199;-44
2022/12/31 08:59:33;;;;;;;3.60;3.30;;;21.90;69.40;;;;;;5064146;28;20199;-47
2022/12/31 09:02:27;;;;;;;5.15;4.28;;;22.00;71.80;;;;;;5065293;28;20458;-47
2022/12/31 09:05:02;;;;;;;2.53;2.33;;;21.90;73.70;;;;;;5049746;28;20195;-47
2022/12/31 09:07:35;;;;;;;3.55;2.53;;;21.80;72.80;;;;;;5062266;28;20199;-45
2022/12/31 09:10:14;;;;;;;5.07;4.68;;;21.80;72.20;;;;;;5065718;28;22213;-43
2022/12/31 09:12:51;;;;;;;2.63;2.42;;;21.90;72.10;;;;;;5068363;28;20203;-44
2022/12/31 09:15:26;;;;;;;6.90;6.40;;;21.80;71.70;;;;;;5066427;28;20379;-43
2022/12/31 09:17:53;;;;;;;2.97;2.75;;;21.90;71.80;;;;;;5069170;28;20535;-47
2022/12/31 09:20:24;;;;;;;3.08;2.85;;;21.90;71.70;;;;;;5062915;28;20216;-46
2022/12/31 09:22:51;;;;;;;4.43;4.13;;;21.90;71.70;;;;;;5066498;28;20189;-44
2022/12/31 09:25:20;;;;;;;67.65;65.15;;;22.00;71.80;;;;;;5065896;28;20206;-47
2022/12/31 09:27:57;;;;;;;44.25;42.50;;;22.00;71.70;;;;;;5062829;28;20195;-44
2022/12/31 09:30:27;;;;;;;3.53;3.17;;;22.00;71.80;;;;;;5065987;28;20578;-49
2022/12/31 09:33:01;;;;;;;2.50;2.28;;;21.90;72.00;;;;;;5068047;28;20219;-48
2022/12/31 09:35:36;;;;;;;11.68;3.40;;;21.90;72.10;;;;;;5063671;28;20219;-45
2022/12/31 09:38:06;;;;;;;1.50;1.33;;;21.90;72.30;;;;;;5067074;28;20198;-45
2022/12/31 09:41:02;;;;;;;3.20;2.33;;;21.90;72.70;;;;;;5063992;28;20221;-56
2022/12/31 09:44:07;;;;;;;5.63;3.55;;;21.90;72.70;;;;;;5066951;28;20258;-49
2022/12/31 09:47:08;;;;;;;11.07;3.88;;;21.70;73.20;;;;;;5059246;28;20218;-45
2022/12/31 09:50:12;;;;;;;1.67;1.58;;;21.70;73.70;;;;;;5055946;28;20191;-47
2022/12/31 09:53:01;;;;;;;6.55;6.10;;;21.70;73.70;;;;;;5052745;28;20202;-47
2022/12/31 09:55:34;;;;;;;62.65;60.13;;;21.70;73.70;;;;;;5062231;28;20192;-46
2022/12/31 09:58:12;;;;;;;2.50;2.13;;;21.70;73.80;;;;;;5067123;28;20199;-46
2022/12/31 10:00:43;;;;;;;44.13;41.92;;;21.60;73.60;;;;;;5069308;28;20242;-51
2022/12/31 10:03:29;;;;;;;26.20;25.30;;;21.50;74.90;;;;;;5069446;28;20196;-47
2022/12/31 10:06:16;;;;;;;17.48;16.67;;;21.50;74.80;;;;;;5059861;28;20204;-47
2022/12/31 10:09:01;;;;;;;15.25;14.23;;;21.50;74.40;;;;;;5068849;28;20202;-44
2022/12/31 10:11:41;;;;;;;9.07;8.38;;;21.60;74.30;;;;;;5068147;28;20241;-44
2022/12/31 10:14:19;;;;;;;2.25;1.20;;;21.60;74.00;;;;;;5070407;28;20192;-45
2022/12/31 10:17:01;;;;;;;2.60;2.40;;;21.60;73.90;;;;;;5068470;28;20195;-45
2022/12/31 10:20:00;;;;;;;1.30;1.13;;;21.60;73.70;;;;;;5069783;28;20222;-45
2022/12/31 10:22:45;;;;;;;1.10;0.98;;;21.70;73.70;;;;;;5035446;28;20202;-47
2022/12/31 10:25:36;;;;;;;4.13;2.42;;;21.70;73.70;;;;;;5059405;28;20650;-46
2022/12/31 10:28:14;;;;;;;3.15;2.90;;;21.70;73.90;;;;;;5055343;28;20393;-46
2022/12/31 10:30:50;;;;;;;1.58;1.30;;;21.70;73.60;;;;;;5057805;28;20241;-46
2022/12/31 10:33:28;;;;;;;2.67;2.47;;;21.80;73.90;;;;;;5056951;28;20192;-46
2022/12/31 10:36:06;;;;;;;2.72;2.45;;;21.80;73.60;;;;;;5057346;28;20726;-45
2022/12/31 10:38:44;;;;;;;2.65;2.45;;;21.80;73.50;;;;;;5058958;28;20202;-48
2022/12/31 10:41:55;;;;;;;2.67;1.50;;;21.80;73.80;;;;;;5062767;28;20223;-50
2022/12/31 10:45:01;;;;;;;2.47;2.30;;;21.90;74.00;;;;;;5060935;28;20195;-48
2022/12/31 10:47:55;;;;;;;4.05;2.63;;;21.90;73.80;;;;;;5061568;28;20563;-49
2022/12/31 10:50:49;;;;;;;3.37;3.10;;;21.90;73.40;;;;;;5055757;28;20203;-50
2022/12/31 10:53:50;;;;;;;3.13;2.92;;;21.90;73.40;;;;;;5060836;28;20485;-45
2022/12/31 10:56:44;;;;;;;2.20;1.65;;;21.90;73.50;;;;;;5059274;28;21129;-46
2022/12/31 10:59:40;;;;;;;3.75;3.45;;;21.90;73.60;;;;;;5058096;28;20741;-47
2022/12/31 11:02:30;;;;;;;1.92;1.83;;;21.90;73.80;;;;;;5059522;28;20204;-49
2022/12/31 11:05:25;;;;;;;3.95;2.85;;;21.90;72.80;;;;;;5060909;28;20200;-47
2022/12/31 11:08:10;;;;;;;2.45;2.25;;;21.90;72.90;;;;;;5062041;28;20563;-47
2022/12/31 11:11:04;;;;;;;3.35;2.05;;;22.00;73.10;;;;;;5061581;28;20595;-46
2022/12/31 11:14:08;;;;;;;4.30;1.10;;;22.00;73.90;;;;;;5070860;28;20671;-44
2022/12/31 11:17:03;;;;;;;2.50;2.30;;;22.00;73.30;;;;;;5060826;28;20532;-47
2022/12/31 11:19:36;;;;;;;2.30;2.10;;;22.00;73.40;;;;;;5057112;28;20222;-47
2022/12/31 11:22:31;;;;;;;4.40;4.10;;;22.00;73.50;;;;;;5061536;28;20583;-45
2022/12/31 11:25:18;;;;;;;1.90;1.80;;;22.00;73.60;;;;;;5059780;28;21044;-47
2022/12/31 11:27:59;;;;;;;2.75;2.55;;;22.00;73.60;;;;;;5060434;28;20196;-45
2022/12/31 11:30:33;;;;;;;2.80;2.25;;;22.00;73.70;;;;;;5059831;28;20192;-45
2022/12/31 11:33:19;;;;;;;3.17;2.53;;;22.00;74.00;;;;;;5060346;28;20210;-45
2022/12/31 11:36:00;;;;;;;2.85;2.65;;;22.00;74.00;;;;;;5057637;28;20201;-50
2022/12/31 11:38:31;;;;;;;3.30;2.37;;;22.00;74.10;;;;;;5061288;28;21798;-49
2022/12/31 11:41:05;;;;;;;1.85;1.70;;;22.00;74.10;;;;;;5059100;28;20473;-49
2022/12/31 11:43:38;;;;;;;3.00;2.07;;;22.00;74.20;;;;;;5063158;28;20203;-47
2022/12/31 11:46:38;;;;;;;1.90;1.65;;;22.00;74.20;;;;;;5059706;28;20463;-52
2022/12/31 11:49:23;;;;;;;2.03;1.92;;;22.00;74.20;;;;;;5052951;28;20203;-46
2022/12/31 11:52:13;;;;;;;3.35;3.10;;;22.00;74.40;;;;;;5059586;28;20235;-46
2022/12/31 11:54:57;;;;;;;3.70;3.47;;;22.00;74.20;;;;;;5059264;28;20819;-48
2022/12/31 11:57:27;;;;;;;3.13;1.10;;;21.90;74.80;;;;;;5060837;28;20459;-46
2022/12/31 11:59:59;;;;;;;2.88;2.15;;;21.90;75.10;;;;;;5057146;28;20204;-45
2022/12/31 12:02:28;;;;;;;2.00;1.70;;;21.80;75.40;;;;;;5061282;28;20684;-46
2022/12/31 12:04:57;;;;;;;2.42;2.25;;;21.80;75.50;;;;;;5063880;28;20476;-48
2022/12/31 12:07:25;;;;;;;1.35;1.25;;;21.80;75.50;;;;;;5062840;28;20664;-46
2022/12/31 12:09:55;;;;;;;9.23;8.38;;;21.80;75.10;;;;;;5059291;28;20245;-49
2022/12/31 12:12:22;;;;;;;1.20;1.10;;;21.90;75.30;;;;;;5068038;28;20706;-48
2022/12/31 12:14:52;;;;;;;1.50;1.40;;;22.10;75.10;;;;;;5060025;28;20457;-49
2022/12/31 12:17:30;;;;;;;2.90;2.70;;;22.20;74.60;;;;;;5067355;28;20211;-48
2022/12/31 12:20:00;;;;;;;2.00;1.80;;;22.40;74.00;;;;;;5057877;28;20322;-49
2022/12/31 12:22:29;;;;;;;1.33;1.23;;;22.60;73.50;;;;;;5060489;28;20203;-53
2022/12/31 12:25:01;;;;;;;2.80;2.60;;;22.60;73.20;;;;;;5059993;28;20188;-51
2022/12/31 12:27:31;;;;;;;3.07;2.13;;;22.70;73.00;;;;;;5058560;28;20458;-51
2022/12/31 12:29:58;;;;;;;2.17;1.98;;;22.80;72.70;;;;;;5060192;28;20459;-50
2022/12/31 12:32:26;;;;;;;1.88;1.50;;;22.80;72.60;;;;;;5058607;28;20239;-50
2022/12/31 12:34:53;;;;;;;2.30;1.65;;;22.90;72.50;;;;;;5059915;28;20192;-53
2022/12/31 12:37:31;;;;;;;2.17;2.00;;;23.00;72.60;;;;;;5059070;28;20201;-51
2022/12/31 12:40:00;;;;;;;1.67;1.53;;;22.90;73.40;;;;;;5061343;28;20201;-51
2022/12/31 12:42:27;;;;;;;1.80;1.70;;;22.90;72.40;;;;;;5060015;28;20461;-47
2022/12/31 12:45:02;;;;;;;1.80;1.00;;;23.00;72.30;;;;;;5062499;28;20660;-51
2022/12/31 12:47:31;;;;;;;4.10;1.90;;;23.40;72.70;;;;;;5060308;28;20192;-48
2022/12/31 12:49:59;;;;;;;1.90;1.70;;;23.10;72.10;;;;;;5058919;28;20224;-51
2022/12/31 12:52:41;;;;;;;2.15;1.90;;;23.00;72.20;;;;;;5057775;28;20549;-50
2022/12/31 12:55:17;;;;;;;1.70;1.60;;;22.90;72.30;;;;;;5059476;28;20286;-48
2022/12/31 12:57:49;;;;;;;1.55;1.45;;;22.90;72.30;;;;;;5060315;28;20192;-47
2022/12/31 13:00:19;;;;;;;1.20;1.00;;;22.90;72.40;;;;;;5058488;28;20189;-44
2022/12/31 13:03:12;;;;;;;3.28;1.80;;;22.90;72.40;;;;;;5058493;28;20564;-44
2022/12/31 13:06:11;;;;;;;2.40;2.23;;;22.90;72.40;;;;;;5058446;28;20191;-44
2022/12/31 13:08:56;;;;;;;2.20;2.00;;;22.90;72.50;;;;;;5043479;28;20458;-48
2022/12/31 13:11:37;;;;;;;2.83;2.63;;;22.90;72.60;;;;;;5058954;28;20465;-45
2022/12/31 13:14:14;;;;;;;1.50;1.40;;;22.90;72.70;;;;;;5058841;28;20461;-48
2022/12/31 13:16:46;;;;;;;3.00;2.80;;;22.90;73.40;;;;;;5056662;28;20199;-46
2022/12/31 13:19:22;;;;;;;1.50;1.40;;;22.80;72.50;;;;;;5064412;28;20486;-46
2022/12/31 13:21:57;;;;;;;2.03;1.87;;;22.80;72.50;;;;;;5058509;28;20602;-54
2022/12/31 13:24:43;;;;;;;2.60;1.83;;;22.80;72.60;;;;;;5057834;28;20468;-45
2022/12/31 13:27:17;;;;;;;2.60;2.40;;;22.80;72.60;;;;;;5055810;28;20466;-45
2022/12/31 13:29:47;;;;;;;1.83;1.73;;;22.80;72.70;;;;;;5060374;28;20456;-48
2022/12/31 13:32:19;;;;;;;1.80;1.70;;;22.80;72.80;;;;;;5057090;28;20720;-50
2022/12/31 13:34:51;;;;;;;2.03;1.92;;;22.80;72.70;;;;;;5056769;28;21133;-51
2022/12/31 13:37:27;;;;;;;5.90;1.63;;;22.80;72.70;;;;;;5057113;28;20200;-47
2022/12/31 13:40:01;;;;;;;2.55;1.45;;;22.70;72.90;;;;;;5057230;28;20454;-49